Time;durP1;ratioP1;P1;durP2;ratioP2;P2;SDS_P1;SDS_P2;PMS_P1;PMS_P2;Temp;Humidity;BMP_temperature;BMP_pressure;BME280_temperature;BME280_humidity;BME280_pressure;Samples;Min_cycle;Max_cycle;Signal;HPM_P1;HPM_P2
2022/09/30 00:02:36;;;;;;;8.05;4.18;;;;;;;12.28;51.61;100762.66;7382490;19;20031;-56
2022/09/30 00:05:20;;;;;;;;;;;;;;;12.11;52.01;100764.59;7371979;19;21498;-56
2022/09/30 00:08:04;;;;;;;9.02;4.57;;;;;;;12.05;51.96;100766.00;7387109;19;20467;-56
2022/09/30 00:10:29;;;;;;;9.50;4.65;;;;;;;12.01;51.75;100765.13;7392823;19;20014;-56
2022/09/30 00:12:57;;;;;;;8.93;5.22;;;;;;;12.02;52.12;100761.22;7395031;19;20010;-56
2022/09/30 00:15:23;;;;;;;7.97;4.82;;;;;;;12.02;51.93;100766.69;7390503;19;20003;-56
2022/09/30 00:17:48;;;;;;;8.05;4.70;;;;;;;12.04;51.92;100764.41;7395413;19;20002;-56
2022/09/30 00:20:14;;;;;;;8.68;5.60;;;;;;;11.94;52.46;100764.91;7388070;19;20023;-56
2022/09/30 00:22:39;;;;;;;10.18;5.68;;;;;;;11.95;52.23;100774.72;7391962;19;20026;-56
2022/09/30 00:25:05;;;;;;;8.70;5.07;;;;;;;11.98;52.32;100774.03;7390506;19;19999;-56
2022/09/30 00:27:30;;;;;;;8.57;5.25;;;;;;;11.99;52.09;100775.59;7389542;19;20003;-56
2022/09/30 00:29:56;;;;;;;8.15;5.03;;;;;;;11.91;52.24;100768.38;7388398;19;20066;-56
2022/09/30 00:32:21;;;;;;;11.02;4.88;;;;;;;11.85;52.24;100768.59;7391065;19;20007;-57
2022/09/30 00:34:47;;;;;;;11.52;5.35;;;;;;;11.98;52.27;100765.81;7392160;19;20019;-57
2022/09/30 00:37:14;;;;;;;10.85;5.35;;;;;;;11.87;52.59;100773.72;7391766;19;20002;-57
2022/09/30 00:39:40;;;;;;;11.73;5.53;;;;;;;11.80;52.74;100768.84;7388790;19;20021;-56
2022/09/30 00:42:13;;;;;;;7.57;4.50;;;;;;;11.89;52.30;100773.38;7377518;19;20014;-56
2022/09/30 00:44:50;;;;;;;7.38;4.22;;;;;;;11.94;52.36;100775.84;7392813;19;20022;-56
2022/09/30 00:47:27;;;;;;;7.50;4.85;;;;;;;11.92;52.43;100773.47;7392295;19;20011;-56
2022/09/30 00:49:55;;;;;;;9.18;5.07;;;;;;;12.02;52.16;100772.97;7391996;19;20028;-56
2022/09/30 00:52:21;;;;;;;8.75;4.82;;;;;;;12.09;52.07;100777.84;7388104;19;19999;-56
2022/09/30 00:54:47;;;;;;;9.07;4.78;;;;;;;12.06;52.13;100774.97;7388800;19;20010;-56
2022/09/30 00:57:12;;;;;;;8.00;5.00;;;;;;;12.08;52.19;100776.22;7389639;19;20003;-56
2022/09/30 00:59:46;;;;;;;8.27;4.65;;;;;;;12.00;52.11;100774.47;7389667;19;20032;-56
2022/09/30 01:02:13;;;;;;;10.23;5.53;;;;;;;11.97;52.34;100775.16;7390669;19;20609;-57
2022/09/30 01:04:41;;;;;;;9.10;4.97;;;;;;;11.88;52.78;100778.06;7393079;19;19998;-56
2022/09/30 01:07:09;;;;;;;9.13;5.07;;;;;;;11.91;52.51;100784.78;7389577;19;20006;-56
2022/09/30 01:09:38;;;;;;;8.23;4.50;;;;;;;11.97;52.41;100780.63;7387398;19;20030;-56
2022/09/30 01:12:10;;;;;;;8.07;5.07;;;;;;;12.01;52.25;100787.78;7390884;19;20042;-56
2022/09/30 01:14:37;;;;;;;8.48;5.32;;;;;;;12.09;51.92;100783.31;7389070;19;20471;-56
2022/09/30 01:17:09;;;;;;;7.75;4.43;;;;;;;12.17;51.79;100779.59;7390194;19;19999;-57
2022/09/30 01:19:50;;;;;;;11.02;4.93;;;;;;;12.04;52.07;100775.38;7387116;19;20001;-56
2022/09/30 01:22:52;;;;;;;8.65;4.65;;;;;;;12.02;52.14;100772.16;7391097;19;20546;-56
2022/09/30 01:25:58;;;;;;;8.27;4.85;;;;;;;12.08;51.80;100781.69;7390883;19;19998;-56
2022/09/30 01:28:32;;;;;;;8.52;4.47;;;;;;;12.05;52.02;100782.41;7393554;19;20002;-56
2022/09/30 01:31:43;;;;;;;8.05;4.32;;;;;;;11.98;52.19;100776.75;7388947;19;20478;-56
2022/09/30 01:34:18;;;;;;;8.15;4.78;;;;;;;12.00;51.78;100779.94;7389841;19;20006;-56
2022/09/30 01:37:01;;;;;;;9.10;5.10;;;;;;;11.91;52.15;100771.91;7388088;19;20014;-56
2022/09/30 01:39:46;;;;;;;8.32;4.50;;;;;;;11.87;52.19;100772.94;7359055;19;20027;-56
2022/09/30 01:42:24;;;;;;;8.95;4.68;;;;;;;11.81;52.25;100767.69;7396727;19;20372;-56
2022/09/30 01:45:06;;;;;;;9.45;4.97;;;;;;;11.73;52.54;100768.66;7397162;19;19998;-56
2022/09/30 01:47:57;;;;;;;8.60;4.95;;;;;;;11.82;52.53;100769.31;7397123;19;19998;-56
2022/09/30 01:50:34;;;;;;;8.35;4.55;;;;;;;11.85;52.42;100765.09;7394361;19;20002;-56
2022/09/30 01:53:19;;;;;;;9.10;4.82;;;;;;;11.84;52.37;100777.16;7395135;19;20003;-56
2022/09/30 01:55:51;;;;;;;9.45;5.25;;;;;;;11.91;52.08;100780.09;7394115;19;20001;-56
2022/09/30 01:58:41;;;;;;;9.05;4.82;;;;;;;11.84;52.49;100779.91;7394128;19;20347;-56
2022/09/30 02:01:18;;;;;;;8.68;4.68;;;;;;;11.87;52.19;100783.88;7393802;19;20018;-56
2022/09/30 02:03:51;;;;;;;10.80;4.70;;;;;;;11.73;52.50;100779.59;7393355;19;20006;-56
2022/09/30 02:06:22;;;;;;;8.13;4.93;;;;;;;11.81;52.12;100789.59;7396817;19;19994;-56
2022/09/30 02:09:10;;;;;;;9.30;5.20;;;;;;;11.78;52.13;100784.81;7393010;19;20005;-56
2022/09/30 02:11:37;;;;;;;8.85;4.85;;;;;;;11.89;52.16;100787.06;7396061;19;20006;-56
2022/09/30 02:14:27;;;;;;;7.45;4.50;;;;;;;11.78;52.17;100776.59;7394277;19;20099;-56
2022/09/30 02:17:02;;;;;;;7.28;4.53;;;;;;;11.79;52.48;100786.41;7395370;19;20010;-56
2022/09/30 02:19:36;;;;;;;8.65;5.30;;;;;;;11.71;52.31;100783.84;7393137;19;20007;-56
2022/09/30 02:22:19;;;;;;;8.57;5.53;;;;;;;11.72;52.58;100786.19;7395278;19;20001;-56
2022/09/30 02:24:49;;;;;;;10.60;5.63;;;;;;;11.66;52.22;100793.88;7394314;19;19995;-56
2022/09/30 02:27:22;;;;;;;9.00;5.15;;;;;;;11.65;52.49;100795.00;7394663;19;20343;-56
2022/09/30 02:29:53;;;;;;;9.07;5.50;;;;;;;11.62;52.53;100795.72;7393022;19;20001;-56
2022/09/30 02:32:30;;;;;;;9.80;5.20;;;;;;;11.75;52.12;100796.44;7393186;19;20006;-56
2022/09/30 02:35:01;;;;;;;8.07;5.35;;;;;;;11.68;52.34;100796.25;7392838;19;20047;-56
2022/09/30 02:37:33;;;;;;;10.68;5.85;;;;;;;11.62;52.40;100803.09;7392873;19;20000;-56
2022/09/30 02:40:20;;;;;;;9.25;5.30;;;;;;;11.56;52.86;100807.25;7393357;19;20010;-56
2022/09/30 02:42:47;;;;;;;11.05;6.30;;;;;;;11.62;52.37;100808.56;7389045;19;20095;-56
2022/09/30 02:45:16;;;;;;;9.35;5.82;;;;;;;11.69;52.30;100811.53;7397059;19;20010;-56
2022/09/30 02:48:06;;;;;;;10.93;5.88;;;;;;;11.64;52.44;100811.78;7393288;19;20009;-56
2022/09/30 02:50:50;;;;;;;11.90;5.95;;;;;;;11.62;52.24;100814.84;7391207;19;20011;-56
2022/09/30 02:53:24;;;;;;;9.68;5.15;;;;;;;11.58;52.37;100819.41;7393390;19;20011;-56
2022/09/30 02:56:01;;;;;;;;;;;;;;;11.62;52.63;100814.03;7392617;19;20010;-56
2022/09/30 02:58:28;;;;;;;10.65;5.50;;;;;;;11.68;52.23;100813.44;7392523;19;19922;-56
2022/09/30 03:00:56;;;;;;;10.00;5.53;;;;;;;11.68;52.20;100818.13;7390858;19;20520;-56
2022/09/30 03:03:29;;;;;;;9.43;5.70;;;;;;;11.61;52.40;100824.19;7396814;19;20007;-56
2022/09/30 03:06:01;;;;;;;9.45;5.95;;;;;;;11.66;52.33;100823.94;7394171;19;20003;-56
2022/09/30 03:08:27;;;;;;;9.38;5.65;;;;;;;11.68;52.30;100818.91;7392516;19;20021;-56
2022/09/30 03:10:52;;;;;;;10.13;6.25;;;;;;;11.69;52.16;100822.47;7390543;19;20070;-57
2022/09/30 03:13:43;;;;;;;10.13;6.25;;;;;;;11.53;52.61;100824.34;7393965;19;20026;-56
2022/09/30 03:16:33;;;;;;;10.57;6.32;;;;;;;11.52;52.89;100830.94;7392585;19;20011;-56
2022/09/30 03:19:22;;;;;;;10.48;6.25;;;;;;;11.52;52.77;100830.94;7391477;19;20078;-56
2022/09/30 03:22:23;;;;;;;9.73;5.70;;;;;;;11.46;52.75;100828.44;7393264;19;20062;-56
2022/09/30 03:25:17;;;;;;;11.20;6.53;;;;;;;11.44;52.84;100829.97;7393061;19;20035;-56
2022/09/30 03:28:03;;;;;;;9.68;5.55;;;;;;;11.35;52.66;100832.03;7393595;19;20039;-56
2022/09/30 03:30:31;;;;;;;9.40;6.22;;;;;;;11.26;52.98;100837.63;7393400;19;19999;-56
2022/09/30 03:33:09;;;;;;;10.27;6.50;;;;;;;11.03;53.42;100834.59;7393171;19;19999;-56
2022/09/30 03:35:35;;;;;;;11.18;6.93;;;;;;;10.96;53.45;100829.69;7393252;19;20002;-56
2022/09/30 03:38:25;;;;;;;11.63;6.75;;;;;;;10.93;53.45;100833.13;7389393;19;20006;-56
2022/09/30 03:41:10;;;;;;;11.20;6.28;;;;;;;11.01;53.54;100831.41;7393912;19;20003;-56
2022/09/30 03:44:01;;;;;;;12.00;7.03;;;;;;;11.09;53.37;100831.28;7391578;19;20062;-56
2022/09/30 03:46:48;;;;;;;12.13;7.00;;;;;;;11.13;53.10;100846.97;7391877;19;20026;-56
2022/09/30 03:49:20;;;;;;;10.85;6.85;;;;;;;11.17;53.05;100839.69;7389217;19;19999;-56
2022/09/30 03:51:46;;;;;;;10.65;6.30;;;;;;;11.09;52.86;100842.19;7391813;19;20078;-56
2022/09/30 03:54:13;;;;;;;11.65;7.05;;;;;;;10.90;53.44;100852.91;7389837;19;20003;-56
2022/09/30 03:56:42;;;;;;;12.23;7.40;;;;;;;10.93;53.50;100847.56;7392179;19;20006;-56
2022/09/30 03:59:16;;;;;;;11.50;7.57;;;;;;;10.91;53.67;100859.97;7389884;19;20006;-56
2022/09/30 04:01:41;;;;;;;11.63;7.55;;;;;;;10.87;53.63;100862.59;7391254;19;20356;-56
2022/09/30 04:04:07;;;;;;;11.05;7.40;;;;;;;11.01;53.38;100862.25;7391766;19;20005;-56
2022/09/30 04:06:33;;;;;;;12.02;7.05;;;;;;;11.05;53.11;100865.88;7392348;19;20371;-55
2022/09/30 04:08:58;;;;;;;10.45;7.15;;;;;;;11.09;52.80;100864.06;7387484;19;20042;-56
2022/09/30 04:11:24;;;;;;;12.05;6.22;;;;;;;11.11;52.84;100863.72;7391553;19;20597;-56
2022/09/30 04:13:49;;;;;;;12.75;7.65;;;;;;;10.96;53.33;100869.88;7391419;19;20022;-55
2022/09/30 04:16:15;;;;;;;13.48;8.70;;;;;;;10.88;53.30;100882.50;7392060;19;20312;-56
2022/09/30 04:18:41;;;;;;;11.43;7.55;;;;;;;10.94;53.36;100878.41;7391264;19;20082;-56
2022/09/30 04:21:12;;;;;;;12.32;7.68;;;;;;;11.02;53.03;100876.69;7388391;19;19994;-56
2022/09/30 04:23:40;;;;;;;10.75;7.43;;;;;;;10.98;52.87;100875.78;7391418;19;19998;-55
2022/09/30 04:26:09;;;;;;;13.63;7.40;;;;;;;11.04;52.54;100888.09;7389208;19;20034;-55
2022/09/30 04:28:34;;;;;;;11.45;7.47;;;;;;;10.97;52.75;100888.66;7389618;19;20003;-56
2022/09/30 04:31:01;;;;;;;9.90;7.05;;;;;;;11.02;52.62;100885.69;7391292;19;20494;-56
2022/09/30 04:33:27;;;;;;;13.13;7.47;;;;;;;10.94;52.88;100886.59;7390413;19;20002;-56
2022/09/30 04:36:00;;;;;;;12.88;7.53;;;;;;;10.89;53.09;100886.84;7391328;19;19998;-56
2022/09/30 04:38:26;;;;;;;10.40;6.60;;;;;;;10.97;52.75;100882.38;7388763;19;20011;-56
2022/09/30 04:40:53;;;;;;;12.30;6.72;;;;;;;10.85;52.81;100883.97;7394182;19;20005;-56
2022/09/30 04:43:22;;;;;;;12.35;7.50;;;;;;;10.86;53.05;100901.16;7388680;19;19998;-56
2022/09/30 04:45:49;;;;;;;11.27;6.80;;;;;;;10.73;53.31;100917.47;7390841;19;20006;-56
2022/09/30 04:48:15;;;;;;;11.05;7.63;;;;;;;10.86;52.83;100920.28;7390310;19;20054;-56
2022/09/30 04:50:42;;;;;;;12.35;7.50;;;;;;;10.82;52.95;100919.34;7390070;19;20010;-57
2022/09/30 04:53:10;;;;;;;11.70;7.25;;;;;;;10.91;52.83;100928.25;7388732;19;19999;-57
2022/09/30 04:55:36;;;;;;;12.50;7.47;;;;;;;10.87;52.68;100924.59;7390452;19;20090;-56
2022/09/30 04:58:01;;;;;;;13.52;7.28;;;;;;;10.87;52.76;100924.59;7388698;19;20002;-56
2022/09/30 05:00:27;;;;;;;11.30;7.18;;;;;;;10.74;52.92;100923.75;7389048;19;19991;-57
2022/09/30 05:02:52;;;;;;;12.32;7.50;;;;;;;10.85;53.00;100924.91;7389973;19;20003;-57
2022/09/30 05:05:18;;;;;;;15.55;8.27;;;;;;;10.95;52.62;100925.63;7389425;19;19995;-56
2022/09/30 05:07:44;;;;;;;11.98;7.20;;;;;;;10.94;52.70;100930.28;7388425;19;19999;-57
2022/09/30 05:10:11;;;;;;;13.35;7.55;;;;;;;10.88;53.08;100928.91;7384908;19;20022;-57
2022/09/30 05:12:37;;;;;;;11.63;7.35;;;;;;;10.76;53.17;100923.47;7390331;19;20006;-57
2022/09/30 05:15:04;;;;;;;14.80;7.65;;;;;;;10.65;53.42;100926.59;7396936;19;20009;-57
2022/09/30 05:17:30;;;;;;;12.43;8.13;;;;;;;10.79;53.18;100928.25;7396326;19;20061;-57
2022/09/30 05:19:56;;;;;;;13.18;8.25;;;;;;;10.85;53.14;100933.09;7394629;19;19999;-58
2022/09/30 05:22:23;;;;;;;13.10;8.73;;;;;;;10.89;52.81;100938.72;7398131;19;20332;-57
2022/09/30 05:24:51;;;;;;;14.93;8.90;;;;;;;11.03;52.59;100936.44;7395487;19;20384;-57
2022/09/30 05:27:18;;;;;;;15.25;9.27;;;;;;;11.03;52.51;100939.16;7394779;19;20427;-57
2022/09/30 05:29:44;;;;;;;12.73;8.52;;;;;;;10.97;52.88;100943.28;7393707;19;20378;-57
2022/09/30 05:32:10;;;;;;;16.75;8.77;;;;;;;11.04;52.57;100942.72;7396587;19;20002;-57
2022/09/30 05:34:37;;;;;;;13.95;9.10;;;;;;;11.08;52.46;100938.94;7396746;19;20034;-57
2022/09/30 05:37:03;;;;;;;15.63;9.23;;;;;;;11.04;52.68;100948.97;7395700;19;20031;-57
2022/09/30 05:39:28;;;;;;;12.85;8.88;;;;;;;11.07;52.64;100942.81;7395335;19;20006;-56
2022/09/30 05:41:58;;;;;;;14.15;8.52;;;;;;;11.10;52.42;100941.31;7394642;19;19999;-57
2022/09/30 05:44:24;;;;;;;16.20;9.55;;;;;;;11.10;52.77;100941.31;7396786;19;20003;-56
2022/09/30 05:46:50;;;;;;;14.48;8.80;;;;;;;11.06;52.89;100946.69;7395679;19;20529;-56
2022/09/30 05:49:15;;;;;;;18.05;9.82;;;;;;;11.13;52.66;100942.59;7393707;19;20006;-56
2022/09/30 05:51:41;;;;;;;15.20;9.23;;;;;;;11.15;52.57;100952.03;7396155;19;20006;-57
2022/09/30 05:54:06;;;;;;;13.57;8.40;;;;;;;11.18;52.14;100947.81;7395224;19;20007;-57
2022/09/30 05:56:33;;;;;;;15.50;9.73;;;;;;;11.20;52.42;100943.59;7396552;19;20001;-56
2022/09/30 05:58:59;;;;;;;14.90;9.35;;;;;;;11.24;52.32;100952.72;7396002;19;20013;-56
2022/09/30 06:01:25;;;;;;;13.68;9.02;;;;;;;11.24;52.20;100950.00;7394324;19;20013;-56
2022/09/30 06:03:51;;;;;;;14.35;9.30;;;;;;;11.25;52.16;100954.28;7395438;19;20437;-56
2022/09/30 06:06:18;;;;;;;16.08;10.13;;;;;;;11.40;51.93;100954.75;7395700;19;19999;-56
2022/09/30 06:08:45;;;;;;;14.80;9.80;;;;;;;11.39;51.93;100950.41;7393929;19;20019;-57
2022/09/30 06:11:13;;;;;;;14.60;9.68;;;;;;;11.33;52.21;100955.31;7393654;19;20003;-56
2022/09/30 06:13:40;;;;;;;14.38;9.60;;;;;;;11.33;51.93;100955.31;7393387;19;20446;-56
2022/09/30 06:16:06;;;;;;;13.98;9.60;;;;;;;11.26;52.00;100952.38;7394043;19;20462;-56
2022/09/30 06:18:32;;;;;;;13.23;8.77;;;;;;;11.30;52.02;100959.56;7393868;19;20019;-56
2022/09/30 06:21:00;;;;;;;15.88;10.05;;;;;;;11.27;52.02;100956.69;7393306;19;19995;-56
2022/09/30 06:23:26;;;;;;;17.52;10.20;;;;;;;11.28;52.14;100966.50;7395186;19;20003;-56
2022/09/30 06:25:53;;;;;;;16.85;10.57;;;;;;;11.25;52.31;100976.16;7393862;19;20014;-56
2022/09/30 06:28:19;;;;;;;14.52;9.82;;;;;;;11.32;52.17;100983.78;7393960;19;20027;-56
2022/09/30 06:30:45;;;;;;;16.17;10.35;;;;;;;11.27;51.96;100984.00;7394747;19;19987;-56
2022/09/30 06:33:12;;;;;;;14.77;10.20;;;;;;;11.24;52.12;100979.25;7393693;19;19994;-56
2022/09/30 06:35:40;;;;;;;16.65;9.95;;;;;;;11.31;51.95;100979.47;7395179;19;20002;-56
2022/09/30 06:38:07;;;;;;;16.92;10.32;;;;;;;11.31;51.87;100990.41;7393338;19;20013;-56
2022/09/30 06:40:32;;;;;;;15.35;10.23;;;;;;;11.34;51.94;100988.91;7396308;19;20343;-56
2022/09/30 06:42:59;;;;;;;17.67;10.80;;;;;;;11.41;51.92;100979.00;7394735;19;20002;-55
2022/09/30 06:45:26;;;;;;;16.05;11.05;;;;;;;11.39;51.96;100986.75;7395335;19;20006;-56
2022/09/30 06:47:56;;;;;;;16.83;10.80;;;;;;;11.44;51.59;100983.78;7394492;19;20034;-56
2022/09/30 06:50:22;;;;;;;15.68;10.90;;;;;;;11.48;51.75;100981.16;7394279;19;20091;-56
2022/09/30 06:52:47;;;;;;;18.15;10.93;;;;;;;11.35;51.77;100985.84;7394360;19;20494;-56
2022/09/30 06:55:13;;;;;;;16.15;9.85;;;;;;;11.37;51.83;100991.78;7391411;19;19998;-56
2022/09/30 06:57:42;;;;;;;15.27;10.15;;;;;;;11.35;51.98;100995.97;7392633;19;20337;-56
2022/09/30 07:00:08;;;;;;;15.27;10.20;;;;;;;11.39;51.98;100994.97;7391405;19;19991;-56
2022/09/30 07:02:34;;;;;;;16.15;9.88;;;;;;;11.53;51.39;100991.88;7394425;19;19998;-56
2022/09/30 07:05:03;;;;;;;13.80;9.40;;;;;;;11.61;51.50;100990.16;7392444;19;20008;-57
2022/09/30 07:07:28;;;;;;;15.25;10.43;;;;;;;11.56;51.62;100991.19;7391449;19;19998;-57
2022/09/30 07:09:54;;;;;;;14.70;9.93;;;;;;;11.54;51.83;100987.19;7391141;19;20463;-57
2022/09/30 07:12:19;;;;;;;14.43;9.80;;;;;;;11.56;51.55;100995.88;7392695;19;20487;-57
2022/09/30 07:14:45;;;;;;;16.58;10.77;;;;;;;11.58;51.67;100993.56;7391775;19;20013;-55
2022/09/30 07:17:11;;;;;;;14.73;9.95;;;;;;;11.58;51.71;101004.50;7392669;19;20010;-57
2022/09/30 07:19:36;;;;;;;16.00;10.18;;;;;;;11.58;51.80;101004.50;7389521;19;20002;-57
2022/09/30 07:24:46;;;;;;;15.95;10.15;;;;;;;11.56;51.52;101006.81;7393935;19;19999;-55
2022/09/30 07:27:12;;;;;;;16.15;11.05;;;;;;;11.65;51.21;101007.47;7393715;19;20482;-55
2022/09/30 07:29:40;;;;;;;18.00;10.23;;;;;;;11.78;51.14;101002.78;7388828;19;20022;-55
2022/09/30 07:32:06;;;;;;;16.38;10.93;;;;;;;11.86;51.06;101012.81;7390821;19;19998;-55
2022/09/30 07:34:32;;;;;;;15.57;10.85;;;;;;;11.88;51.37;101013.28;7392351;19;20400;-55
2022/09/30 07:36:57;;;;;;;16.55;10.80;;;;;;;11.91;51.14;101009.84;7392032;19;19998;-55
2022/09/30 07:39:23;;;;;;;15.98;10.27;;;;;;;11.97;50.91;101011.22;7390903;19;20074;-55
2022/09/30 07:41:49;;;;;;;16.25;10.70;;;;;;;11.99;50.86;101006.19;7392117;19;20010;-56
2022/09/30 07:44:14;;;;;;;13.95;10.02;;;;;;;11.94;51.33;101017.38;7392345;19;20003;-55
2022/09/30 07:46:40;;;;;;;16.90;10.20;;;;;;;11.96;51.17;101014.28;7393234;19;19999;-55
2022/09/30 07:49:11;;;;;;;15.98;10.40;;;;;;;11.98;51.16;101014.75;7389544;19;20498;-55
2022/09/30 07:51:39;;;;;;;16.33;10.48;;;;;;;12.12;50.98;101019.81;7392025;19;20005;-56
2022/09/30 07:54:07;;;;;;;14.98;10.00;;;;;;;12.15;50.72;101022.66;7392310;19;20011;-55
2022/09/30 07:56:37;;;;;;;15.57;10.35;;;;;;;12.13;50.97;101024.94;7390187;19;20014;-56
2022/09/30 07:59:03;;;;;;;15.80;10.68;;;;;;;12.08;51.23;101022.47;7391416;19;20043;-55
2022/09/30 08:01:30;;;;;;;14.85;10.30;;;;;;;12.18;50.85;101021.19;7390983;19;20449;-55
2022/09/30 08:03:59;;;;;;;16.13;10.68;;;;;;;12.24;51.01;101022.53;7391429;19;20005;-55
2022/09/30 08:06:27;;;;;;;15.20;9.50;;;;;;;12.31;50.66;101016.47;7391879;19;19999;-57
2022/09/30 08:08:54;;;;;;;16.42;10.68;;;;;;;12.34;50.70;101011.09;7391415;19;20002;-57
2022/09/30 08:11:20;;;;;;;17.25;11.57;;;;;;;12.32;50.70;101010.63;7387898;19;20026;-57
2022/09/30 08:13:54;;;;;;;15.10;10.32;;;;;;;12.35;50.92;101009.16;7389818;19;20454;-57
2022/09/30 08:16:20;;;;;;;16.33;10.52;;;;;;;12.38;51.04;101016.66;7390944;19;20601;-57
2022/09/30 08:18:46;;;;;;;16.95;10.80;;;;;;;12.37;50.61;101007.66;7390399;19;19999;-57
2022/09/30 08:21:12;;;;;;;15.57;10.90;;;;;;;12.51;50.51;101012.72;7389608;19;20009;-57
2022/09/30 08:23:37;;;;;;;17.85;10.40;;;;;;;12.65;50.32;101022.47;7391133;19;19995;-57
2022/09/30 08:26:09;;;;;;;16.60;10.35;;;;;;;12.72;50.12;101017.19;7390448;19;19990;-57
2022/09/30 08:28:36;;;;;;;16.67;10.18;;;;;;;12.73;50.17;101025.06;7389902;19;20415;-57
2022/09/30 08:31:10;;;;;;;14.68;9.52;;;;;;;12.75;50.12;101027.44;7392154;19;19999;-57
2022/09/30 08:33:36;;;;;;;14.82;9.60;;;;;;;12.82;50.11;101024.09;7390216;19;20481;-57
2022/09/30 08:36:15;;;;;;;18.20;9.93;;;;;;;12.81;50.08;101034.25;7391059;19;19991;-57
2022/09/30 08:38:40;;;;;;;14.68;9.93;;;;;;;12.88;49.85;101026.25;7389198;19;20003;-57
2022/09/30 08:41:38;;;;;;;16.23;10.30;;;;;;;12.92;49.70;101024.38;7392388;19;20013;-57
2022/09/30 08:44:21;;;;;;;14.55;9.50;;;;;;;13.00;49.74;101028.13;7388062;19;19999;-57
2022/09/30 08:47:00;;;;;;;19.27;10.20;;;;;;;13.07;49.44;101027.50;7391660;19;20036;-57
2022/09/30 08:49:47;;;;;;;17.02;9.77;;;;;;;13.13;49.27;101032.38;7394679;19;19998;-57
2022/09/30 08:52:19;;;;;;;19.15;9.95;;;;;;;13.12;49.25;101024.50;7399372;19;20002;-57
2022/09/30 08:54:49;;;;;;;17.55;8.98;;;;;;;13.23;49.27;101036.53;7398447;19;20005;-57
2022/09/30 08:57:15;;;;;;;16.20;8.50;;;;;;;13.32;48.96;101031.66;7396332;19;19990;-57
2022/09/30 08:59:57;;;;;;;15.85;9.23;;;;;;;13.38;49.00;101034.16;7392579;19;20503;-57
2022/09/30 09:02:29;;;;;;;14.55;9.35;;;;;;;13.39;48.95;101038.47;7397852;19;20077;-57
2022/09/30 09:05:00;;;;;;;16.35;9.05;;;;;;;13.46;48.79;101038.63;7397887;19;19994;-57
2022/09/30 09:07:48;;;;;;;15.35;9.27;;;;;;;13.42;48.71;101041.28;7396911;19;20006;-57
2022/09/30 09:10:35;;;;;;;13.75;9.02;;;;;;;13.45;48.85;101042.53;7393426;19;20010;-57
2022/09/30 09:13:27;;;;;;;14.10;8.82;;;;;;;13.53;48.97;101036.06;7398227;19;20003;-57
2022/09/30 09:16:21;;;;;;;16.38;9.25;;;;;;;13.53;48.79;101044.31;7397627;19;20011;-57
2022/09/30 09:18:52;;;;;;;16.02;9.40;;;;;;;13.53;48.50;101049.78;7396347;19;20010;-57
2022/09/30 09:21:50;;;;;;;16.67;9.35;;;;;;;13.58;48.32;101046.78;7394232;19;20156;-57
2022/09/30 09:24:22;;;;;;;16.20;9.13;;;;;;;13.61;48.53;101048.81;7397676;19;19994;-57
2022/09/30 09:26:50;;;;;;;17.15;9.90;;;;;;;13.63;48.61;101041.00;7396744;19;20007;-57
2022/09/30 09:29:41;;;;;;;15.10;9.75;;;;;;;13.57;49.08;101047.13;7395270;19;20010;-57
2022/09/30 09:32:16;;;;;;;14.98;10.05;;;;;;;13.74;48.61;101048.69;7396168;19;20007;-57
2022/09/30 09:34:42;;;;;;;16.95;9.55;;;;;;;13.79;48.36;101053.91;7397727;19;20006;-57
2022/09/30 09:37:16;;;;;;;25.02;10.63;;;;;;;13.87;48.31;101052.94;7396999;19;19999;-55
2022/09/30 09:39:48;;;;;;;;;;;;;;;13.91;48.35;101053.00;7394464;19;20018;-56
2022/09/30 09:42:46;;;;;;;15.93;9.73;;;;;;;13.94;48.13;101042.13;7397245;19;19923;-56
2022/09/30 09:45:25;;;;;;;16.38;10.15;;;;;;;13.82;48.10;101048.47;7396742;19;20016;-56
2022/09/30 09:47:52;;;;;;;14.57;9.60;;;;;;;13.93;48.21;101050.69;7394357;19;20058;-57
2022/09/30 09:50:32;;;;;;;15.15;10.20;;;;;;;13.99;48.01;101044.56;7393465;19;20034;-56
2022/09/30 09:53:19;;;;;;;15.18;9.20;;;;;;;14.07;48.06;101054.56;7395694;19;20554;-56
2022/09/30 09:55:45;;;;;;;13.60;8.93;;;;;;;14.09;47.88;101054.19;7396311;19;20010;-56
2022/09/30 09:58:14;;;;;;;15.93;9.75;;;;;;;14.13;47.84;101054.28;7393860;19;20001;-57
2022/09/30 10:03:18;;;;;;;15.65;9.35;;;;;;;14.14;47.87;101044.88;7396360;19;20036;-57
2022/09/30 10:05:46;;;;;;;14.25;9.60;;;;;;;14.17;47.63;101038.69;7396238;19;19991;-57
2022/09/30 10:08:21;;;;;;;13.70;8.80;;;;;;;14.27;47.39;101043.59;7395074;19;20027;-58
2022/09/30 10:10:53;;;;;;;12.88;8.32;;;;;;;14.17;47.17;101044.19;7393496;19;20316;-57
2022/09/30 10:13:26;;;;;;;14.43;8.43;;;;;;;14.18;47.36;101048.53;7396086;19;20366;-57
2022/09/30 10:15:56;;;;;;;12.68;8.68;;;;;;;14.30;46.96;101047.59;7395992;19;20002;-57
2022/09/30 10:18:42;;;;;;;15.00;8.57;;;;;;;14.29;46.72;101044.03;7395206;19;20050;-57
2022/09/30 10:21:22;;;;;;;13.20;8.20;;;;;;;14.17;46.67;101050.44;7391611;19;20466;-58
2022/09/30 10:23:48;;;;;;;12.85;7.78;;;;;;;14.30;46.53;101048.38;7394153;19;19998;-58
2022/09/30 10:26:14;;;;;;;13.05;7.85;;;;;;;14.50;46.37;101056.63;7394460;19;20394;-57
2022/09/30 10:28:45;;;;;;;13.13;7.72;;;;;;;14.59;45.65;101055.22;7394063;19;19994;-58
2022/09/30 10:31:40;;;;;;;16.00;9.00;;;;;;;14.67;45.85;101050.66;7394477;19;20055;-57
2022/09/30 10:34:24;;;;;;;13.73;8.25;;;;;;;14.64;46.20;101048.63;7394891;19;20002;-57
2022/09/30 10:36:50;;;;;;;14.25;7.50;;;;;;;14.61;45.76;101043.88;7393194;19;20033;-57
2022/09/30 10:39:23;;;;;;;10.90;6.78;;;;;;;14.60;44.98;101051.31;7392431;19;20451;-57
2022/09/30 10:41:51;;;;;;;11.27;5.97;;;;;;;14.60;45.22;101053.28;7391899;19;20037;-56
2022/09/30 10:44:22;;;;;;;11.90;6.53;;;;;;;14.57;45.09;101056.75;7395122;19;20007;-56
2022/09/30 10:46:52;;;;;;;11.25;6.15;;;;;;;14.50;45.19;101051.91;7392524;19;20006;-57
2022/09/30 10:49:44;;;;;;;12.27;7.13;;;;;;;14.48;44.51;101047.94;7392194;19;20003;-56
2022/09/30 10:52:19;;;;;;;11.32;6.50;;;;;;;14.68;45.00;101052.25;7394417;19;20074;-57
2022/09/30 10:54:56;;;;;;;11.90;7.25;;;;;;;14.71;44.97;101043.31;7393896;19;20458;-58
2022/09/30 10:57:22;;;;;;;13.35;8.05;;;;;;;14.68;44.79;101046.78;7394264;19;20462;-57
2022/09/30 10:59:51;;;;;;;12.60;8.18;;;;;;;14.59;45.07;101054.44;7391953;19;20016;-57
2022/09/30 11:02:29;;;;;;;13.75;8.32;;;;;;;14.60;45.22;101047.78;7393917;19;20034;-58
2022/09/30 11:05:14;;;;;;;13.30;7.85;;;;;;;14.71;44.48;101040.56;7394705;19;20010;-58
2022/09/30 11:07:48;;;;;;;12.38;7.00;;;;;;;14.72;44.45;101044.09;7393249;19;20003;-57
2022/09/30 11:10:25;;;;;;;;;;;;;;;14.68;44.14;101035.78;7388106;19;20006;-58
2022/09/30 11:13:03;;;;;;;12.98;7.50;;;;;;;14.77;44.86;101036.34;7390897;19;20237;-58
2022/09/30 11:15:44;;;;;;;11.05;7.30;;;;;;;14.92;44.45;101036.63;7390754;19;20438;-58
2022/09/30 11:18:09;;;;;;;13.45;7.88;;;;;;;15.10;44.27;101034.97;7391116;19;20009;-58
2022/09/30 11:20:41;;;;;;;14.07;7.60;;;;;;;14.99;44.16;101037.53;7391555;19;20054;-58
2022/09/30 11:23:25;;;;;;;11.77;7.05;;;;;;;15.04;42.91;101030.94;7393953;19;20002;-58
2022/09/30 11:25:57;;;;;;;;;;;;;;;14.99;42.89;101025.75;7392601;19;20054;-58
2022/09/30 11:28:49;;;;;;;12.43;7.20;;;;;;;15.05;43.57;101037.25;7391979;19;20327;-58
2022/09/30 11:31:28;;;;;;;12.88;7.40;;;;;;;15.16;43.51;101032.72;7393176;19;20111;-58
2022/09/30 11:34:08;;;;;;;16.05;7.40;;;;;;;15.37;43.28;101026.78;7392678;19;20003;-58
2022/09/30 11:36:41;;;;;;;14.23;7.70;;;;;;;15.52;42.99;101023.06;7391499;19;20058;-58
2022/09/30 11:39:26;;;;;;;13.93;7.72;;;;;;;15.59;42.73;101022.38;7392731;19;20054;-58
2022/09/30 11:42:05;;;;;;;12.07;7.97;;;;;;;15.67;42.26;101015.06;7391786;19;20088;-59
2022/09/30 11:44:37;;;;;;;13.98;7.50;;;;;;;15.48;42.89;101016.75;7391751;19;19994;-58
2022/09/30 11:47:39;;;;;;;13.18;7.45;;;;;;;15.35;42.47;101012.59;7392688;19;20013;-58
2022/09/30 11:50:23;;;;;;;11.80;7.72;;;;;;;15.58;42.61;101015.31;7390308;19;20021;-58